sensor_id;sensor_type;location;lat;lon;timestamp;P1;durP1;ratioP1;P2;durP2;ratioP2
17193;SDS011;8713;48.388;10.928;2022-07-23T06:51:25;6.38;;;4.85;;
17193;SDS011;8713;48.388;10.928;2022-07-23T06:52:34;7.95;;;5.10;;
17193;SDS011;8713;48.388;10.928;2022-07-23T06:54:02;7.53;;;4.55;;
17193;SDS011;8713;48.388;10.928;2022-07-23T06:55:32;8.88;;;4.30;;
17193;SDS011;8713;48.388;10.928;2022-07-23T06:57:03;7.75;;;4.80;;
17193;SDS011;8713;48.388;10.928;2022-07-23T06:58:33;6.88;;;4.40;;
17193;SDS011;8713;48.388;10.928;2022-07-23T07:00:01;6.22;;;4.70;;
17193;SDS011;8713;48.388;10.928;2022-07-23T07:01:29;5.47;;;4.10;;
17193;SDS011;8713;48.388;10.928;2022-07-23T07:02:58;7.35;;;4.80;;
17193;SDS011;8713;48.388;10.928;2022-07-23T07:04:26;7.18;;;5.00;;
17193;SDS011;8713;48.388;10.928;2022-07-23T07:05:54;6.72;;;4.50;;
17193;SDS011;8713;48.388;10.928;2022-07-23T07:07:22;6.13;;;4.10;;
17193;SDS011;8713;48.388;10.928;2022-07-23T07:08:52;6.38;;;4.10;;
17193;SDS011;8713;48.388;10.928;2022-07-23T07:10:20;5.93;;;4.03;;
17193;SDS011;8713;48.388;10.928;2022-07-23T07:11:49;7.05;;;3.85;;
17193;SDS011;8713;48.388;10.928;2022-07-23T07:13:17;5.80;;;4.07;;
17193;SDS011;8713;48.388;10.928;2022-07-23T07:14:45;6.55;;;4.50;;
17193;SDS011;8713;48.388;10.928;2022-07-23T07:16:13;5.82;;;4.30;;
17193;SDS011;8713;48.388;10.928;2022-07-23T07:17:41;8.05;;;4.80;;
17193;SDS011;8713;48.388;10.928;2022-07-23T07:19:11;5.95;;;4.40;;
17193;SDS011;8713;48.388;10.928;2022-07-23T07:20:39;8.38;;;4.72;;
17193;SDS011;8713;48.388;10.928;2022-07-23T07:22:07;7.13;;;4.65;;
17193;SDS011;8713;48.388;10.928;2022-07-23T07:23:35;6.63;;;4.68;;
17193;SDS011;8713;48.388;10.928;2022-07-23T07:25:03;5.38;;;4.03;;
17193;SDS011;8713;48.388;10.928;2022-07-23T07:26:33;5.35;;;4.18;;
17193;SDS011;8713;48.388;10.928;2022-07-23T07:28:01;6.10;;;4.40;;
17193;SDS011;8713;48.388;10.928;2022-07-23T07:29:29;5.47;;;3.95;;
17193;SDS011;8713;48.388;10.928;2022-07-23T07:30:57;6.75;;;4.78;;
17193;SDS011;8713;48.388;10.928;2022-07-23T07:32:25;6.78;;;4.53;;
17193;SDS011;8713;48.388;10.928;2022-07-23T07:33:53;6.80;;;4.50;;
17193;SDS011;8713;48.388;10.928;2022-07-23T07:35:24;6.35;;;4.80;;
17193;SDS011;8713;48.388;10.928;2022-07-23T07:36:52;8.35;;;4.28;;
17193;SDS011;8713;48.388;10.928;2022-07-23T07:38:21;6.57;;;4.55;;
17193;SDS011;8713;48.388;10.928;2022-07-23T07:39:49;6.70;;;5.03;;
17193;SDS011;8713;48.388;10.928;2022-07-23T07:41:17;6.05;;;4.57;;
17193;SDS011;8713;48.388;10.928;2022-07-23T07:42:51;6.68;;;4.38;;
17193;SDS011;8713;48.388;10.928;2022-07-23T07:44:21;6.10;;;4.85;;
17193;SDS011;8713;48.388;10.928;2022-07-23T07:45:30;7.35;;;4.72;;
17193;SDS011;8713;48.388;10.928;2022-07-23T07:46:39;7.05;;;5.07;;
17193;SDS011;8713;48.388;10.928;2022-07-23T07:47:49;10.38;;;5.28;;
17193;SDS011;8713;48.388;10.928;2022-07-23T07:48:59;5.95;;;4.25;;
17193;SDS011;8713;48.388;10.928;2022-07-23T07:50:08;5.57;;;4.18;;
17193;SDS011;8713;48.388;10.928;2022-07-23T07:51:18;7.15;;;4.47;;
17193;SDS011;8713;48.388;10.928;2022-07-23T07:52:28;6.93;;;4.47;;
17193;SDS011;8713;48.388;10.928;2022-07-23T07:53:37;6.63;;;4.25;;
17193;SDS011;8713;48.388;10.928;2022-07-23T07:54:46;8.15;;;4.40;;
17193;SDS011;8713;48.388;10.928;2022-07-23T07:55:56;6.60;;;4.47;;
17193;SDS011;8713;48.388;10.928;2022-07-23T07:57:05;7.65;;;4.65;;
17193;SDS011;8713;48.388;10.928;2022-07-23T07:58:15;7.38;;;4.85;;
17193;SDS011;8713;48.388;10.928;2022-07-23T07:59:24;6.70;;;4.97;;
17193;SDS011;8713;48.388;10.928;2022-07-23T08:00:34;11.30;;;5.15;;
17193;SDS011;8713;48.388;10.928;2022-07-23T08:01:43;7.57;;;4.82;;
17193;SDS011;8713;48.388;10.928;2022-07-23T08:02:53;7.50;;;4.82;;
17193;SDS011;8713;48.388;10.928;2022-07-23T08:04:03;6.28;;;3.97;;
17193;SDS011;8713;48.388;10.928;2022-07-23T08:05:13;7.00;;;4.32;;
17193;SDS011;8713;48.388;10.928;2022-07-23T08:06:23;6.10;;;3.58;;
17193;SDS011;8713;48.388;10.928;2022-07-23T08:07:33;6.38;;;3.95;;
17193;SDS011;8713;48.388;10.928;2022-07-23T08:08:42;5.82;;;3.65;;
17193;SDS011;8713;48.388;10.928;2022-07-23T08:09:52;6.68;;;4.70;;
17193;SDS011;8713;48.388;10.928;2022-07-23T08:11:01;6.85;;;5.00;;
17193;SDS011;8713;48.388;10.928;2022-07-23T08:12:11;7.03;;;4.72;;
17193;SDS011;8713;48.388;10.928;2022-07-23T08:13:20;8.35;;;4.00;;
17193;SDS011;8713;48.388;10.928;2022-07-23T08:14:30;6.13;;;3.83;;
17193;SDS011;8713;48.388;10.928;2022-07-23T08:15:39;5.03;;;3.88;;
17193;SDS011;8713;48.388;10.928;2022-07-23T08:16:49;6.22;;;3.95;;
17193;SDS011;8713;48.388;10.928;2022-07-23T08:17:59;6.43;;;4.57;;
17193;SDS011;8713;48.388;10.928;2022-07-23T08:19:08;6.43;;;4.70;;
17193;SDS011;8713;48.388;10.928;2022-07-23T08:20:19;6.13;;;3.95;;
17193;SDS011;8713;48.388;10.928;2022-07-23T08:21:31;5.75;;;3.95;;
17193;SDS011;8713;48.388;10.928;2022-07-23T08:22:44;8.07;;;4.45;;
17193;SDS011;8713;48.388;10.928;2022-07-23T08:24:02;6.15;;;4.03;;
17193;SDS011;8713;48.388;10.928;2022-07-23T08:25:12;9.15;;;4.20;;
17193;SDS011;8713;48.388;10.928;2022-07-23T08:26:22;7.57;;;4.10;;
17193;SDS011;8713;48.388;10.928;2022-07-23T08:27:51;6.80;;;4.10;;
17193;SDS011;8713;48.388;10.928;2022-07-23T08:29:20;6.93;;;4.07;;
17193;SDS011;8713;48.388;10.928;2022-07-23T08:30:49;6.03;;;4.32;;
17193;SDS011;8713;48.388;10.928;2022-07-23T08:31:58;6.20;;;3.33;;
17193;SDS011;8713;48.388;10.928;2022-07-23T08:33:27;5.43;;;3.50;;
17193;SDS011;8713;48.388;10.928;2022-07-23T08:34:55;5.20;;;3.75;;
17193;SDS011;8713;48.388;10.928;2022-07-23T08:36:23;6.78;;;4.00;;
17193;SDS011;8713;48.388;10.928;2022-07-23T08:37:33;6.45;;;3.83;;
17193;SDS011;8713;48.388;10.928;2022-07-23T08:39:01;5.85;;;3.65;;
17193;SDS011;8713;48.388;10.928;2022-07-23T08:40:31;7.82;;;3.90;;
17193;SDS011;8713;48.388;10.928;2022-07-23T08:42:01;10.40;;;3.90;;
17193;SDS011;8713;48.388;10.928;2022-07-23T08:43:15;4.65;;;3.40;;
17193;SDS011;8713;48.388;10.928;2022-07-23T08:44:48;5.60;;;3.75;;
17193;SDS011;8713;48.388;10.928;2022-07-23T08:46:16;6.32;;;3.40;;
17193;SDS011;8713;48.388;10.928;2022-07-23T08:47:51;5.97;;;4.00;;
17193;SDS011;8713;48.388;10.928;2022-07-23T08:49:02;9.40;;;3.97;;
17193;SDS011;8713;48.388;10.928;2022-07-23T08:50:31;5.50;;;3.55;;
17193;SDS011;8713;48.388;10.928;2022-07-23T08:52:00;4.72;;;3.53;;
17193;SDS011;8713;48.388;10.928;2022-07-23T08:53:29;6.75;;;4.50;;
17193;SDS011;8713;48.388;10.928;2022-07-23T08:54:39;7.97;;;3.88;;
17193;SDS011;8713;48.388;10.928;2022-07-23T08:56:07;6.88;;;3.85;;
17193;SDS011;8713;48.388;10.928;2022-07-23T08:57:36;6.68;;;3.55;;
17193;SDS011;8713;48.388;10.928;2022-07-23T08:59:04;8.13;;;3.78;;
17193;SDS011;8713;48.388;10.928;2022-07-23T09:00:14;5.53;;;3.78;;
17193;SDS011;8713;48.388;10.928;2022-07-23T09:01:43;6.50;;;3.58;;
17193;SDS011;8713;48.388;10.928;2022-07-23T09:04:46;5.55;;;3.67;;
17193;SDS011;8713;48.388;10.928;2022-07-23T09:05:56;5.45;;;3.75;;
17193;SDS011;8713;48.388;10.928;2022-07-23T09:07:26;5.20;;;3.88;;
17193;SDS011;8713;48.388;10.928;2022-07-23T09:08:54;7.05;;;3.88;;
17193;SDS011;8713;48.388;10.928;2022-07-23T09:10:22;7.47;;;3.67;;
17193;SDS011;8713;48.388;10.928;2022-07-23T09:11:31;7.40;;;3.72;;
17193;SDS011;8713;48.388;10.928;2022-07-23T09:12:41;6.07;;;4.10;;
17193;SDS011;8713;48.388;10.928;2022-07-23T09:13:52;6.28;;;3.60;;
17193;SDS011;8713;48.388;10.928;2022-07-23T09:15:08;4.88;;;3.80;;
17193;SDS011;8713;48.388;10.928;2022-07-23T09:16:39;5.47;;;4.10;;
17193;SDS011;8713;48.388;10.928;2022-07-23T09:18:07;6.78;;;3.50;;
17193;SDS011;8713;48.388;10.928;2022-07-23T09:19:35;5.53;;;3.80;;
17193;SDS011;8713;48.388;10.928;2022-07-23T09:21:10;6.35;;;3.83;;
17193;SDS011;8713;48.388;10.928;2022-07-23T09:22:46;5.50;;;3.47;;
17193;SDS011;8713;48.388;10.928;2022-07-23T09:24:15;6.25;;;3.75;;
17193;SDS011;8713;48.388;10.928;2022-07-23T09:25:44;5.88;;;3.95;;
17193;SDS011;8713;48.388;10.928;2022-07-23T09:27:12;5.57;;;3.35;;
17193;SDS011;8713;48.388;10.928;2022-07-23T09:28:52;5.45;;;4.00;;
17193;SDS011;8713;48.388;10.928;2022-07-23T09:30:28;6.38;;;3.75;;
17193;SDS011;8713;48.388;10.928;2022-07-23T09:31:59;5.72;;;3.75;;
17193;SDS011;8713;48.388;10.928;2022-07-23T09:33:29;5.40;;;3.75;;
17193;SDS011;8713;48.388;10.928;2022-07-23T09:34:57;5.20;;;3.88;;
17193;SDS011;8713;48.388;10.928;2022-07-23T09:36:29;5.13;;;3.90;;
17193;SDS011;8713;48.388;10.928;2022-07-23T09:38:01;5.55;;;3.90;;
17193;SDS011;8713;48.388;10.928;2022-07-23T09:39:31;5.13;;;3.95;;
17193;SDS011;8713;48.388;10.928;2022-07-23T09:41:10;5.57;;;3.90;;
17193;SDS011;8713;48.388;10.928;2022-07-23T09:42:39;7.40;;;4.07;;
17193;SDS011;8713;48.388;10.928;2022-07-23T09:44:17;5.18;;;3.88;;
17193;SDS011;8713;48.388;10.928;2022-07-23T09:45:48;6.88;;;3.70;;
17193;SDS011;8713;48.388;10.928;2022-07-23T09:47:16;7.57;;;3.70;;
17193;SDS011;8713;48.388;10.928;2022-07-23T09:48:46;4.82;;;3.63;;
17193;SDS011;8713;48.388;10.928;2022-07-23T09:50:15;6.22;;;3.80;;
17193;SDS011;8713;48.388;10.928;2022-07-23T09:51:55;5.32;;;3.42;;
17193;SDS011;8713;48.388;10.928;2022-07-23T09:53:27;6.47;;;3.80;;
17193;SDS011;8713;48.388;10.928;2022-07-23T09:55:01;6.72;;;3.65;;
17193;SDS011;8713;48.388;10.928;2022-07-23T09:56:32;6.88;;;3.55;;
17193;SDS011;8713;48.388;10.928;2022-07-23T09:58:01;7.13;;;4.32;;
17193;SDS011;8713;48.388;10.928;2022-07-23T09:59:32;6.53;;;4.03;;
17193;SDS011;8713;48.388;10.928;2022-07-23T10:01:03;4.82;;;3.85;;
17193;SDS011;8713;48.388;10.928;2022-07-23T10:02:31;6.10;;;4.35;;
17193;SDS011;8713;48.388;10.928;2022-07-23T10:04:04;6.95;;;4.25;;
17193;SDS011;8713;48.388;10.928;2022-07-23T10:05:40;6.20;;;4.15;;
17193;SDS011;8713;48.388;10.928;2022-07-23T10:07:10;6.10;;;4.90;;
17193;SDS011;8713;48.388;10.928;2022-07-23T10:08:59;5.93;;;3.88;;
17193;SDS011;8713;48.388;10.928;2022-07-23T10:10:50;5.22;;;3.75;;
17193;SDS011;8713;48.388;10.928;2022-07-23T10:12:36;4.53;;;3.67;;
17193;SDS011;8713;48.388;10.928;2022-07-23T10:14:13;6.50;;;4.43;;
17193;SDS011;8713;48.388;10.928;2022-07-23T10:15:54;6.05;;;4.25;;
17193;SDS011;8713;48.388;10.928;2022-07-23T10:17:23;7.32;;;4.30;;
17193;SDS011;8713;48.388;10.928;2022-07-23T10:18:42;7.38;;;4.45;;
17193;SDS011;8713;48.388;10.928;2022-07-23T10:19:51;6.05;;;4.25;;
17193;SDS011;8713;48.388;10.928;2022-07-23T10:21:00;6.28;;;4.10;;
17193;SDS011;8713;48.388;10.928;2022-07-23T10:23:36;5.80;;;4.25;;
17193;SDS011;8713;48.388;10.928;2022-07-23T10:26:58;5.05;;;4.10;;
17193;SDS011;8713;48.388;10.928;2022-07-23T10:29:02;8.60;;;4.30;;
17193;SDS011;8713;48.388;10.928;2022-07-23T10:31:07;6.65;;;4.28;;
17193;SDS011;8713;48.388;10.928;2022-07-23T10:34:40;7.28;;;4.30;;
17193;SDS011;8713;48.388;10.928;2022-07-23T10:36:18;8.18;;;4.97;;
17193;SDS011;8713;48.388;10.928;2022-07-23T10:37:51;7.72;;;4.25;;
17193;SDS011;8713;48.388;10.928;2022-07-23T10:39:32;5.93;;;4.20;;
17193;SDS011;8713;48.388;10.928;2022-07-23T10:41:02;6.13;;;4.10;;
17193;SDS011;8713;48.388;10.928;2022-07-23T10:42:33;4.47;;;3.58;;
17193;SDS011;8713;48.388;10.928;2022-07-23T10:45:41;6.60;;;4.20;;
17193;SDS011;8713;48.388;10.928;2022-07-23T10:47:09;5.80;;;3.70;;
17193;SDS011;8713;48.388;10.928;2022-07-23T10:48:38;6.60;;;4.00;;
17193;SDS011;8713;48.388;10.928;2022-07-23T10:58:05;5.68;;;3.40;;
17193;SDS011;8713;48.388;10.928;2022-07-23T10:59:15;5.18;;;3.85;;
17193;SDS011;8713;48.388;10.928;2022-07-23T11:00:43;6.72;;;4.25;;
17193;SDS011;8713;48.388;10.928;2022-07-23T11:02:22;5.82;;;4.43;;
17193;SDS011;8713;48.388;10.928;2022-07-23T11:03:56;5.65;;;3.78;;
17193;SDS011;8713;48.388;10.928;2022-07-23T11:05:38;8.50;;;4.15;;
17193;SDS011;8713;48.388;10.928;2022-07-23T11:07:10;5.28;;;3.83;;
17193;SDS011;8713;48.388;10.928;2022-07-23T11:08:39;8.23;;;4.00;;
17193;SDS011;8713;48.388;10.928;2022-07-23T11:10:07;6.85;;;4.10;;
17193;SDS011;8713;48.388;10.928;2022-07-23T11:13:41;5.47;;;4.28;;
17193;SDS011;8713;48.388;10.928;2022-07-23T11:15:15;8.65;;;5.00;;
17193;SDS011;8713;48.388;10.928;2022-07-23T11:16:46;7.25;;;4.30;;
17193;SDS011;8713;48.388;10.928;2022-07-23T11:18:15;7.47;;;4.20;;
17193;SDS011;8713;48.388;10.928;2022-07-23T11:23:04;6.25;;;4.18;;
17193;SDS011;8713;48.388;10.928;2022-07-23T11:24:32;5.25;;;4.00;;
17193;SDS011;8713;48.388;10.928;2022-07-23T11:28:13;7.75;;;4.57;;
17193;SDS011;8713;48.388;10.928;2022-07-23T11:29:46;7.75;;;4.47;;
17193;SDS011;8713;48.388;10.928;2022-07-23T11:31:19;5.88;;;4.35;;
17193;SDS011;8713;48.388;10.928;2022-07-23T11:32:46;7.43;;;4.00;;
17193;SDS011;8713;48.388;10.928;2022-07-23T11:34:33;5.85;;;4.10;;
17193;SDS011;8713;48.388;10.928;2022-07-23T11:35:44;7.88;;;4.22;;
17193;SDS011;8713;48.388;10.928;2022-07-23T11:36:59;6.72;;;4.70;;
17193;SDS011;8713;48.388;10.928;2022-07-23T11:38:14;7.38;;;4.38;;
17193;SDS011;8713;48.388;10.928;2022-07-23T11:39:48;6.75;;;4.25;;
17193;SDS011;8713;48.388;10.928;2022-07-23T11:41:24;5.30;;;4.18;;
17193;SDS011;8713;48.388;10.928;2022-07-23T11:42:53;6.63;;;4.07;;
17193;SDS011;8713;48.388;10.928;2022-07-23T11:44:28;6.40;;;3.92;;
17193;SDS011;8713;48.388;10.928;2022-07-23T11:45:49;6.43;;;4.65;;
17193;SDS011;8713;48.388;10.928;2022-07-23T11:47:10;6.10;;;4.35;;
17193;SDS011;8713;48.388;10.928;2022-07-23T11:48:23;6.05;;;4.50;;
17193;SDS011;8713;48.388;10.928;2022-07-23T11:49:35;6.20;;;4.68;;
17193;SDS011;8713;48.388;10.928;2022-07-23T11:51:04;6.88;;;4.47;;
17193;SDS011;8713;48.388;10.928;2022-07-23T11:52:32;5.60;;;3.97;;
17193;SDS011;8713;48.388;10.928;2022-07-23T11:54:07;5.50;;;4.15;;
17193;SDS011;8713;48.388;10.928;2022-07-23T11:55:16;6.28;;;4.30;;
17193;SDS011;8713;48.388;10.928;2022-07-23T11:56:26;6.15;;;4.15;;
17193;SDS011;8713;48.388;10.928;2022-07-23T11:57:37;6.72;;;4.72;;
17193;SDS011;8713;48.388;10.928;2022-07-23T11:58:55;6.55;;;4.20;;
17193;SDS011;8713;48.388;10.928;2022-07-23T12:00:10;6.13;;;4.63;;
17193;SDS011;8713;48.388;10.928;2022-07-23T12:01:59;7.32;;;4.65;;
17193;SDS011;8713;48.388;10.928;2022-07-23T12:03:30;5.18;;;4.10;;
17193;SDS011;8713;48.388;10.928;2022-07-23T12:04:59;5.85;;;4.10;;
17193;SDS011;8713;48.388;10.928;2022-07-23T12:06:26;5.72;;;3.90;;
17193;SDS011;8713;48.388;10.928;2022-07-23T12:07:55;5.13;;;4.18;;
17193;SDS011;8713;48.388;10.928;2022-07-23T12:09:25;6.47;;;4.47;;
17193;SDS011;8713;48.388;10.928;2022-07-23T12:10:38;6.07;;;4.72;;
17193;SDS011;8713;48.388;10.928;2022-07-23T12:12:09;5.88;;;5.05;;
17193;SDS011;8713;48.388;10.928;2022-07-23T12:13:37;7.03;;;4.30;;
17193;SDS011;8713;48.388;10.928;2022-07-23T12:15:06;5.90;;;4.65;;
17193;SDS011;8713;48.388;10.928;2022-07-23T12:16:16;6.53;;;4.63;;
17193;SDS011;8713;48.388;10.928;2022-07-23T12:17:46;6.05;;;4.43;;
17193;SDS011;8713;48.388;10.928;2022-07-23T12:19:15;6.32;;;4.72;;
17193;SDS011;8713;48.388;10.928;2022-07-23T12:20:45;8.20;;;4.68;;
17193;SDS011;8713;48.388;10.928;2022-07-23T12:21:59;6.90;;;4.28;;
17193;SDS011;8713;48.388;10.928;2022-07-23T12:23:27;8.00;;;4.78;;
17193;SDS011;8713;48.388;10.928;2022-07-23T12:24:56;6.20;;;4.70;;
17193;SDS011;8713;48.388;10.928;2022-07-23T12:26:26;7.80;;;4.82;;
17193;SDS011;8713;48.388;10.928;2022-07-23T12:27:36;6.43;;;4.78;;
17193;SDS011;8713;48.388;10.928;2022-07-23T12:29:04;8.52;;;5.05;;
17193;SDS011;8713;48.388;10.928;2022-07-23T12:30:55;7.18;;;5.13;;
17193;SDS011;8713;48.388;10.928;2022-07-23T12:32:24;8.20;;;4.50;;
17193;SDS011;8713;48.388;10.928;2022-07-23T12:33:54;6.25;;;4.35;;
17193;SDS011;8713;48.388;10.928;2022-07-23T12:35:22;8.30;;;5.25;;
17193;SDS011;8713;48.388;10.928;2022-07-23T12:37:01;9.38;;;5.18;;
17193;SDS011;8713;48.388;10.928;2022-07-23T12:38:12;7.78;;;4.88;;
17193;SDS011;8713;48.388;10.928;2022-07-23T12:39:46;7.40;;;4.97;;
17193;SDS011;8713;48.388;10.928;2022-07-23T12:41:15;6.40;;;4.78;;
17193;SDS011;8713;48.388;10.928;2022-07-23T12:42:43;8.18;;;4.53;;
17193;SDS011;8713;48.388;10.928;2022-07-23T12:43:53;8.27;;;4.78;;
17193;SDS011;8713;48.388;10.928;2022-07-23T12:45:22;6.78;;;4.82;;
17193;SDS011;8713;48.388;10.928;2022-07-23T12:46:51;7.82;;;4.82;;
17193;SDS011;8713;48.388;10.928;2022-07-23T12:48:27;7.38;;;5.28;;
17193;SDS011;8713;48.388;10.928;2022-07-23T12:49:43;7.47;;;4.85;;
17193;SDS011;8713;48.388;10.928;2022-07-23T12:51:14;7.07;;;4.57;;
17193;SDS011;8713;48.388;10.928;2022-07-23T12:52:44;6.70;;;4.40;;
17193;SDS011;8713;48.388;10.928;2022-07-23T12:54:12;6.57;;;4.80;;
17193;SDS011;8713;48.388;10.928;2022-07-23T12:55:28;6.18;;;4.45;;
17193;SDS011;8713;48.388;10.928;2022-07-23T12:56:56;7.68;;;5.07;;
17193;SDS011;8713;48.388;10.928;2022-07-23T12:58:24;9.07;;;5.30;;
17193;SDS011;8713;48.388;10.928;2022-07-23T12:59:53;12.60;;;5.70;;
17193;SDS011;8713;48.388;10.928;2022-07-23T13:02:50;6.38;;;4.80;;
17193;SDS011;8713;48.388;10.928;2022-07-23T13:04:20;9.52;;;5.22;;
17193;SDS011;8713;48.388;10.928;2022-07-23T13:05:50;6.43;;;5.03;;
17193;SDS011;8713;48.388;10.928;2022-07-23T13:07:00;6.78;;;4.93;;
17193;SDS011;8713;48.388;10.928;2022-07-23T13:08:29;9.75;;;6.10;;
17193;SDS011;8713;48.388;10.928;2022-07-23T13:09:59;6.72;;;5.15;;
17193;SDS011;8713;48.388;10.928;2022-07-23T13:11:27;5.97;;;4.88;;
17193;SDS011;8713;48.388;10.928;2022-07-23T13:12:37;6.63;;;5.13;;
17193;SDS011;8713;48.388;10.928;2022-07-23T13:14:05;8.80;;;4.82;;
17193;SDS011;8713;48.388;10.928;2022-07-23T13:15:33;8.02;;;5.35;;
17193;SDS011;8713;48.388;10.928;2022-07-23T13:17:02;7.82;;;5.72;;
17193;SDS011;8713;48.388;10.928;2022-07-23T13:18:11;6.10;;;4.88;;
17193;SDS011;8713;48.388;10.928;2022-07-23T13:19:39;9.27;;;5.63;;
17193;SDS011;8713;48.388;10.928;2022-07-23T13:21:07;9.85;;;6.07;;
17193;SDS011;8713;48.388;10.928;2022-07-23T13:22:36;7.85;;;6.00;;
17193;SDS011;8713;48.388;10.928;2022-07-23T13:23:46;7.63;;;5.88;;
17193;SDS011;8713;48.388;10.928;2022-07-23T13:25:14;8.00;;;5.40;;
17193;SDS011;8713;48.388;10.928;2022-07-23T13:26:42;7.93;;;5.40;;
17193;SDS011;8713;48.388;10.928;2022-07-23T13:28:12;8.32;;;5.60;;
17193;SDS011;8713;48.388;10.928;2022-07-23T13:29:43;9.30;;;5.80;;
17193;SDS011;8713;48.388;10.928;2022-07-23T13:31:11;7.22;;;5.68;;
17193;SDS011;8713;48.388;10.928;2022-07-23T13:32:39;6.85;;;5.20;;
17193;SDS011;8713;48.388;10.928;2022-07-23T13:34:07;7.75;;;5.30;;
17193;SDS011;8713;48.388;10.928;2022-07-23T13:35:17;7.63;;;5.22;;
17193;SDS011;8713;48.388;10.928;2022-07-23T13:36:26;7.97;;;5.15;;
17193;SDS011;8713;48.388;10.928;2022-07-23T13:37:35;7.43;;;5.60;;
17193;SDS011;8713;48.388;10.928;2022-07-23T13:38:45;8.23;;;5.25;;
17193;SDS011;8713;48.388;10.928;2022-07-23T13:39:54;8.70;;;5.88;;
17193;SDS011;8713;48.388;10.928;2022-07-23T13:41:04;7.72;;;5.10;;
17193;SDS011;8713;48.388;10.928;2022-07-23T13:42:14;10.00;;;6.07;;
17193;SDS011;8713;48.388;10.928;2022-07-23T13:43:23;6.97;;;5.40;;
17193;SDS011;8713;48.388;10.928;2022-07-23T13:44:34;7.00;;;5.15;;
17193;SDS011;8713;48.388;10.928;2022-07-23T13:45:43;7.15;;;5.40;;
17193;SDS011;8713;48.388;10.928;2022-07-23T13:46:53;7.93;;;5.60;;
17193;SDS011;8713;48.388;10.928;2022-07-23T13:48:03;8.27;;;5.15;;
17193;SDS011;8713;48.388;10.928;2022-07-23T13:49:13;7.65;;;5.35;;
17193;SDS011;8713;48.388;10.928;2022-07-23T13:50:23;7.68;;;4.93;;
17193;SDS011;8713;48.388;10.928;2022-07-23T13:51:32;7.18;;;5.50;;
17193;SDS011;8713;48.388;10.928;2022-07-23T13:52:42;7.78;;;5.50;;
17193;SDS011;8713;48.388;10.928;2022-07-23T13:53:51;8.68;;;5.38;;
17193;SDS011;8713;48.388;10.928;2022-07-23T13:55:02;8.80;;;5.18;;
17193;SDS011;8713;48.388;10.928;2022-07-23T13:56:14;8.07;;;5.25;;
17193;SDS011;8713;48.388;10.928;2022-07-23T13:57:23;8.02;;;5.05;;
17193;SDS011;8713;48.388;10.928;2022-07-23T13:58:33;8.77;;;5.15;;
17193;SDS011;8713;48.388;10.928;2022-07-23T13:59:42;8.82;;;6.03;;
17193;SDS011;8713;48.388;10.928;2022-07-23T14:00:52;8.95;;;5.43;;
17193;SDS011;8713;48.388;10.928;2022-07-23T14:02:02;7.82;;;5.13;;
17193;SDS011;8713;48.388;10.928;2022-07-23T14:03:12;7.95;;;5.72;;
17193;SDS011;8713;48.388;10.928;2022-07-23T14:04:21;8.48;;;5.10;;
17193;SDS011;8713;48.388;10.928;2022-07-23T14:05:32;7.93;;;5.50;;
17193;SDS011;8713;48.388;10.928;2022-07-23T14:06:42;9.10;;;5.47;;
17193;SDS011;8713;48.388;10.928;2022-07-23T14:07:52;5.50;;;4.75;;
17193;SDS011;8713;48.388;10.928;2022-07-23T14:09:01;7.43;;;5.43;;
17193;SDS011;8713;48.388;10.928;2022-07-23T14:10:11;8.35;;;5.03;;
17193;SDS011;8713;48.388;10.928;2022-07-23T14:11:20;7.97;;;4.97;;
17193;SDS011;8713;48.388;10.928;2022-07-23T14:12:30;7.30;;;4.90;;
17193;SDS011;8713;48.388;10.928;2022-07-23T14:13:40;8.38;;;5.00;;
17193;SDS011;8713;48.388;10.928;2022-07-23T14:14:49;6.90;;;4.88;;
17193;SDS011;8713;48.388;10.928;2022-07-23T14:15:58;6.13;;;4.40;;
17193;SDS011;8713;48.388;10.928;2022-07-23T14:17:08;6.72;;;4.85;;
17193;SDS011;8713;48.388;10.928;2022-07-23T14:18:18;6.38;;;4.53;;
17193;SDS011;8713;48.388;10.928;2022-07-23T14:19:27;6.95;;;4.72;;
17193;SDS011;8713;48.388;10.928;2022-07-23T14:20:37;7.30;;;4.93;;
17193;SDS011;8713;48.388;10.928;2022-07-23T14:21:46;5.70;;;4.28;;
17193;SDS011;8713;48.388;10.928;2022-07-23T14:22:57;6.63;;;4.82;;
17193;SDS011;8713;48.388;10.928;2022-07-23T14:24:08;10.07;;;4.53;;
17193;SDS011;8713;48.388;10.928;2022-07-23T14:25:18;7.57;;;4.80;;
17193;SDS011;8713;48.388;10.928;2022-07-23T14:26:28;6.28;;;4.80;;
17193;SDS011;8713;48.388;10.928;2022-07-23T14:27:38;6.80;;;4.93;;
17193;SDS011;8713;48.388;10.928;2022-07-23T14:28:48;7.30;;;4.57;;
17193;SDS011;8713;48.388;10.928;2022-07-23T14:29:57;6.38;;;4.35;;
17193;SDS011;8713;48.388;10.928;2022-07-23T14:31:07;7.82;;;4.63;;
17193;SDS011;8713;48.388;10.928;2022-07-23T14:32:16;8.18;;;4.88;;
17193;SDS011;8713;48.388;10.928;2022-07-23T14:33:27;6.53;;;4.65;;
17193;SDS011;8713;48.388;10.928;2022-07-23T14:34:36;6.32;;;4.95;;
17193;SDS011;8713;48.388;10.928;2022-07-23T14:35:46;6.88;;;4.95;;
17193;SDS011;8713;48.388;10.928;2022-07-23T14:36:55;6.25;;;5.10;;
17193;SDS011;8713;48.388;10.928;2022-07-23T14:38:05;6.53;;;4.90;;
17193;SDS011;8713;48.388;10.928;2022-07-23T14:39:15;6.03;;;4.40;;
17193;SDS011;8713;48.388;10.928;2022-07-23T14:40:24;6.68;;;4.53;;
17193;SDS011;8713;48.388;10.928;2022-07-23T14:41:35;9.40;;;5.25;;
17193;SDS011;8713;48.388;10.928;2022-07-23T14:42:44;6.90;;;4.65;;
17193;SDS011;8713;48.388;10.928;2022-07-23T14:43:54;6.93;;;5.00;;
17193;SDS011;8713;48.388;10.928;2022-07-23T14:45:03;8.13;;;4.95;;
17193;SDS011;8713;48.388;10.928;2022-07-23T14:46:14;5.47;;;4.40;;
17193;SDS011;8713;48.388;10.928;2022-07-23T14:47:24;8.27;;;4.72;;
17193;SDS011;8713;48.388;10.928;2022-07-23T14:48:34;4.78;;;4.00;;
17193;SDS011;8713;48.388;10.928;2022-07-23T14:49:43;6.03;;;4.10;;
17193;SDS011;8713;48.388;10.928;2022-07-23T14:50:53;8.10;;;4.20;;
17193;SDS011;8713;48.388;10.928;2022-07-23T14:52:03;4.90;;;4.00;;
17193;SDS011;8713;48.388;10.928;2022-07-23T14:53:13;5.95;;;4.25;;
17193;SDS011;8713;48.388;10.928;2022-07-23T14:54:22;6.32;;;4.45;;
17193;SDS011;8713;48.388;10.928;2022-07-23T14:55:34;5.90;;;3.92;;
17193;SDS011;8713;48.388;10.928;2022-07-23T14:56:44;6.70;;;4.35;;
17193;SDS011;8713;48.388;10.928;2022-07-23T14:57:53;5.80;;;4.50;;
17193;SDS011;8713;48.388;10.928;2022-07-23T14:59:03;5.30;;;3.90;;
17193;SDS011;8713;48.388;10.928;2022-07-23T15:00:13;5.75;;;4.13;;
17193;SDS011;8713;48.388;10.928;2022-07-23T15:01:23;4.88;;;4.00;;
17193;SDS011;8713;48.388;10.928;2022-07-23T15:02:32;5.65;;;3.90;;
17193;SDS011;8713;48.388;10.928;2022-07-23T15:03:42;7.22;;;4.15;;
17193;SDS011;8713;48.388;10.928;2022-07-23T15:04:51;5.75;;;3.80;;
17193;SDS011;8713;48.388;10.928;2022-07-23T15:06:01;7.13;;;4.13;;
17193;SDS011;8713;48.388;10.928;2022-07-23T15:07:10;6.70;;;4.40;;
17193;SDS011;8713;48.388;10.928;2022-07-23T15:08:20;6.47;;;4.43;;
17193;SDS011;8713;48.388;10.928;2022-07-23T15:09:29;6.18;;;4.53;;
17193;SDS011;8713;48.388;10.928;2022-07-23T15:10:39;7.10;;;4.20;;
17193;SDS011;8713;48.388;10.928;2022-07-23T15:11:48;5.50;;;4.30;;
17193;SDS011;8713;48.388;10.928;2022-07-23T15:12:58;6.20;;;4.43;;
17193;SDS011;8713;48.388;10.928;2022-07-23T15:14:08;5.38;;;4.35;;
17193;SDS011;8713;48.388;10.928;2022-07-23T15:15:17;6.55;;;4.60;;
17193;SDS011;8713;48.388;10.928;2022-07-23T15:16:27;5.63;;;4.55;;
17193;SDS011;8713;48.388;10.928;2022-07-23T15:17:36;5.38;;;4.30;;
17193;SDS011;8713;48.388;10.928;2022-07-23T15:18:46;6.18;;;4.20;;
17193;SDS011;8713;48.388;10.928;2022-07-23T15:19:55;5.03;;;4.22;;
17193;SDS011;8713;48.388;10.928;2022-07-23T15:21:05;5.72;;;4.70;;
17193;SDS011;8713;48.388;10.928;2022-07-23T15:22:14;7.40;;;5.25;;
17193;SDS011;8713;48.388;10.928;2022-07-23T15:23:24;7.13;;;4.35;;
17193;SDS011;8713;48.388;10.928;2022-07-23T15:24:33;7.32;;;4.72;;
17193;SDS011;8713;48.388;10.928;2022-07-23T15:25:43;6.80;;;4.35;;